This is the latest recevied weather packets stored in our database for station/object CALDNA-WX. If no packets are shown the sender has not sent any weather packets the latest 10 day(s).
| Time | Temp. | Humidity | Pressure | Rain* | Wind** | Luminosity | Snow |
|---|---|---|---|---|---|---|---|
| 1778186723 | 11.11° C | 38% | 985.5 hPa | 0 mm | - | - | - |
| 1778185837 | 11.67° C | 35% | 985.1 hPa | 0 mm | - | - | - |
| 1778184923 | 11.67° C | 35% | 985.1 hPa | 0 mm | - | - | - |
| 1778184049 | 11.67° C | 35% | 985.1 hPa | 0 mm | - | - | - |
| 1778183125 | 11.67° C | 38% | 985.3 hPa | 0 mm | - | - | - |
| 1778182241 | 11.67° C | 38% | 985.3 hPa | 0 mm | - | - | - |
| 1778181326 | 11.67° C | 38% | 985.3 hPa | 0 mm | - | - | - |
| 1778180447 | 11.67° C | 38% | 985.3 hPa | 0 mm | - | - | - |
| 1778179527 | 11.67° C | 39% | 986.1 hPa | 0 mm | - | - | - |
| 1778178640 | 11.67° C | 43% | 986 hPa | 0 mm | - | - | - |
| 1778177727 | 11.11° C | 43% | 986 hPa | 0 mm | - | - | - |
| 1778176850 | 11.11° C | 43% | 986 hPa | 0 mm | - | - | - |
| 1778175923 | 11.11° C | 44% | 986.7 hPa | 0 mm | - | - | - |
| 1778175041 | 10.56° C | 40% | 987.1 hPa | 0 mm | - | - | - |
| 1778174127 | 10.56° C | 40% | 987.1 hPa | 0 mm | - | - | - |
| 1778173247 | 10.56° C | 40% | 987.1 hPa | 0 mm | - | - | - |
| 1778172326 | 10° C | 46% | 986 hPa | 0 mm | - | - | - |
| 1778171441 | 10° C | 46% | 986 hPa | 0 mm | - | - | - |
| 1778170528 | 9.44° C | 46% | 986 hPa | 0 mm | - | - | - |
| 1778169648 | 9.44° C | 46% | 986 hPa | 0 mm | - | - | - |
| 1778168727 | 8.89° C | 47% | 986.8 hPa | 0 mm | - | - | - |
| 1778167842 | 8.89° C | 49% | 986.7 hPa | 0 mm | - | - | - |
| 1778166927 | 8.89° C | 49% | 986.7 hPa | 0 mm | - | - | - |
| 1778166046 | 8.33° C | 49% | 986.7 hPa | 0 mm | - | - | - |
| 1778165125 | 8.33° C | 55% | 985 hPa | 0 mm | - | - | - |
* Rain latest hour (hover to see other rain measurements)
** Current wind speed in m/s (hover to see current wind gust speed)